Time;durP1;ratioP1;P1;durP2;ratioP2;P2;SDS_P1;SDS_P2;PMS_P1;PMS_P2;Temp;Humidity;BMP_temperature;BMP_pressure;BME280_temperature;BME280_humidity;BME280_pressure;Samples;Min_cycle;Max_cycle;Signal;HPM_P1;HPM_P2
2023/08/19 00:05:38;;;;;;;;;;;23.50;99.90;;;;;;12362634;28;19933;-85
2023/08/19 00:11:40;;;;;;;;;;;23.50;99.90;;;;;;12353465;28;20405;-83
2023/08/19 00:17:41;;;;;;;;;;;23.40;99.90;;;;;;12347591;28;19926;-84
2023/08/19 00:23:43;;;;;;;;;;;23.40;99.90;;;;;;12350937;28;19926;-86
2023/08/19 00:29:45;;;;;;;;;;;23.40;99.90;;;;;;12358423;28;20005;-85
2023/08/19 00:35:50;;;;;;;;;;;23.30;99.90;;;;;;12366102;28;20024;-84
2023/08/19 00:41:53;;;;;;;;;;;23.30;99.90;;;;;;12365384;28;20599;-83
2023/08/19 00:47:55;;;;;;;;;;;23.40;99.90;;;;;;12372859;28;20306;-82
2023/08/19 00:53:57;;;;;;;;;;;23.40;99.90;;;;;;12368525;28;19941;-82
2023/08/19 00:59:59;;;;;;;;;;;23.40;99.90;;;;;;12391443;28;19965;-84
2023/08/19 01:06:39;;;;;;;;;;;23.40;99.90;;;;;;12376894;28;19926;-86
2023/08/19 01:12:44;;;;;;;;;;;23.20;99.90;;;;;;12247408;29;20540;-83
2023/08/19 01:18:46;;;;;;;;;;;23.10;99.90;;;;;;12393800;28;19949;-83
2023/08/19 01:24:48;;;;;;;;;;;23.10;99.90;;;;;;12382893;28;19948;-83
2023/08/19 01:30:50;;;;;;;;;;;23.10;99.90;;;;;;12383698;28;19925;-83
2023/08/19 01:36:57;;;;;;;;;;;23.00;99.90;;;;;;12373601;28;20146;-84
2023/08/19 01:43:00;;;;;;;;;;;23.10;99.90;;;;;;12375111;28;19932;-86
2023/08/19 01:49:01;;;;;;;;;;;23.10;99.90;;;;;;12352434;28;20017;-86
2023/08/19 01:55:03;;;;;;;;;;;23.00;99.90;;;;;;12351876;28;19948;-83
2023/08/19 02:01:09;;;;;;;;;;;23.10;99.90;;;;;;12376623;28;19930;-82
2023/08/19 02:07:11;;;;;;;;;;;23.10;99.90;;;;;;12406760;28;19944;-86
2023/08/19 02:13:12;;;;;;;;;;;23.10;99.90;;;;;;12378838;28;20020;-85
2023/08/19 02:19:14;;;;;;;;;;;23.10;99.90;;;;;;12367461;28;20028;-84
2023/08/19 02:25:16;;;;;;;;;;;23.10;99.90;;;;;;12371117;28;20080;-86
2023/08/19 02:31:18;;;;;;;;;;;23.00;99.90;;;;;;12374798;28;19972;-82
2023/08/19 02:37:19;;;;;;;;;;;23.00;99.90;;;;;;12358346;28;19984;-84
2023/08/19 02:43:21;;;;;;;;;;;23.00;99.90;;;;;;12373818;28;19937;-86
2023/08/19 02:49:23;;;;;;;;;;;22.90;99.90;;;;;;12375440;28;19933;-84
2023/08/19 02:55:24;;;;;;;;;;;22.90;99.90;;;;;;12354227;28;19926;-85
2023/08/19 03:01:26;;;;;;;;;;;22.90;99.90;;;;;;12356186;28;19976;-83
2023/08/19 03:07:28;;;;;;;;;;;22.90;99.90;;;;;;12354576;28;19980;-84
2023/08/19 03:13:30;;;;;;;;;;;22.40;99.90;;;;;;12358692;28;19929;-84
2023/08/19 03:19:32;;;;;;;;;;;22.30;99.90;;;;;;12376915;28;19934;-82
2023/08/19 03:25:34;;;;;;;;;;;22.30;99.90;;;;;;12382273;28;19952;-82
2023/08/19 03:31:35;;;;;;;;;;;22.40;99.90;;;;;;12365184;28;19925;-82
2023/08/19 03:37:37;;;;;;;;;;;22.50;99.90;;;;;;12350655;28;19938;-83
2023/08/19 03:43:39;;;;;;;;;;;22.10;99.90;;;;;;12348674;28;19933;-82
2023/08/19 03:49:41;;;;;;;;;;;21.90;99.90;;;;;;12354481;28;19930;-84
2023/08/19 03:55:43;;;;;;;;;;;21.80;99.90;;;;;;12356693;28;19976;-84
2023/08/19 04:01:44;;;;;;;;;;;21.60;99.90;;;;;;12375071;28;20302;-83
2023/08/19 04:07:46;;;;;;;;;;;21.80;99.90;;;;;;12343640;28;19925;-83
2023/08/19 04:13:48;;;;;;;;;;;22.00;99.90;;;;;;12352612;28;19926;-82
2023/08/19 04:19:50;;;;;;;;;;;22.20;99.90;;;;;;12361351;28;19952;-84
2023/08/19 04:25:54;;;;;;;;;;;22.10;99.90;;;;;;12344233;28;20009;-85
2023/08/19 04:31:55;;;;;;;;;;;22.20;99.90;;;;;;12367551;28;20052;-84
2023/08/19 04:37:57;;;;;;;;;;;22.10;99.90;;;;;;12360161;28;19934;-84
2023/08/19 04:43:59;;;;;;;;;;;21.70;99.90;;;;;;12347686;28;19929;-85
2023/08/19 04:50:03;;;;;;;;;;;21.50;99.90;;;;;;12357238;28;19932;-84
2023/08/19 04:56:06;;;;;;;;;;;21.60;99.90;;;;;;12361239;28;19930;-84
2023/08/19 05:02:07;;;;;;;;;;;22.80;99.90;;;;;;12350981;28;20025;-84
2023/08/19 05:08:09;;;;;;;;;;;24.50;99.90;;;;;;12340449;28;19993;-84
2023/08/19 05:14:12;;;;;;;;;;;26.20;99.90;;;;;;12333279;28;19930;-84
2023/08/19 05:20:14;;;;;;;;;;;25.10;99.90;;;;;;12342319;28;20020;-84
2023/08/19 05:26:15;;;;;;;;;;;24.10;99.90;;;;;;12359435;28;19934;-84
2023/08/19 05:32:17;;;;;;;;;;;23.20;99.90;;;;;;12362310;28;19974;-84
2023/08/19 05:38:19;;;;;;;;;;;22.90;99.90;;;;;;12359859;28;20263;-84
2023/08/19 05:44:21;;;;;;;;;;;22.40;99.90;;;;;;12352418;28;20651;-84
2023/08/19 05:50:23;;;;;;;;;;;22.00;99.90;;;;;;12362660;28;20016;-85
2023/08/19 05:56:24;;;;;;;;;;;22.20;99.90;;;;;;12348277;28;20318;-85
2023/08/19 06:02:26;;;;;;;;;;;22.30;99.90;;;;;;12362174;28;19976;-84
2023/08/19 06:08:28;;;;;;;;;;;22.40;99.90;;;;;;12359406;28;20397;-84
2023/08/19 06:14:30;;;;;;;;;;;22.40;99.90;;;;;;12368836;28;19926;-84
2023/08/19 06:20:32;;;;;;;;;;;22.50;99.90;;;;;;12344754;28;20030;-85
2023/08/19 06:26:33;;;;;;;;;;;22.60;99.90;;;;;;12334350;28;20009;-85
2023/08/19 06:32:35;;;;;;;;;;;22.90;99.90;;;;;;12380965;28;19926;-85
2023/08/19 06:38:40;;;;;;;;;;;23.10;99.90;;;;;;12331637;28;19934;-86
2023/08/19 06:44:42;;;;;;;;;;;23.30;99.90;;;;;;12361358;28;19952;-85
2023/08/19 06:50:43;;;;;;;;;;;23.50;99.90;;;;;;12348091;28;19930;-84
2023/08/19 06:57:06;;;;;;;;;;;23.60;99.90;;;;;;12348805;28;20028;-84
2023/08/19 07:03:10;;;;;;;;;;;23.70;99.90;;;;;;12356955;28;19930;-84
2023/08/19 07:09:14;;;;;;;;;;;23.90;99.90;;;;;;12354134;28;19933;-84
2023/08/19 07:15:16;;;;;;;;;;;24.10;99.90;;;;;;12350762;28;20034;-83
2023/08/19 07:21:18;;;;;;;;;;;24.10;99.90;;;;;;12369364;28;20021;-84
2023/08/19 07:27:20;;;;;;;;;;;24.20;99.90;;;;;;12354181;28;19942;-84
2023/08/19 07:33:22;;;;;;;;;;;24.40;99.90;;;;;;12352400;28;20064;-86
2023/08/19 07:39:25;;;;;;;;;;;24.60;99.90;;;;;;12350580;28;19972;-84
2023/08/19 07:45:27;;;;;;;;;;;25.00;99.90;;;;;;12356019;28;19976;-84
2023/08/19 07:51:29;;;;;;;;;;;25.40;99.90;;;;;;12364103;28;19934;-85
2023/08/19 07:57:30;;;;;;;;;;;25.60;99.90;;;;;;12344971;28;19925;-85
2023/08/19 08:03:32;;;;;;;;;;;25.50;99.90;;;;;;12334579;28;19952;-85
2023/08/19 08:09:34;;;;;;;;;;;25.50;99.90;;;;;;12349627;28;20321;-86
2023/08/19 08:15:36;;;;;;;;;;;25.40;99.90;;;;;;12343050;28;19926;-85
2023/08/19 08:21:38;;;;;;;;;;;25.40;99.90;;;;;;12355975;28;19937;-86
2023/08/19 08:27:40;;;;;;;;;;;25.20;99.90;;;;;;12349466;28;20378;-85
2023/08/19 08:33:42;;;;;;;;;;;25.20;99.90;;;;;;12354500;28;19933;-84
2023/08/19 08:39:44;;;;;;;;;;;25.20;99.90;;;;;;12345578;28;19930;-85
2023/08/19 08:45:46;;;;;;;;;;;25.20;99.90;;;;;;12363773;28;20020;-84
2023/08/19 08:51:48;;;;;;;;;;;25.20;99.90;;;;;;12352291;28;19930;-85
2023/08/19 08:57:50;;;;;;;;;;;25.50;99.90;;;;;;12350317;28;20032;-85
2023/08/19 09:03:54;;;;;;;;;;;25.80;99.90;;;;;;12367027;28;20424;-85
2023/08/19 09:09:58;;;;;;;;;;;25.80;99.90;;;;;;12363832;28;20387;-87
2023/08/19 09:16:00;;;;;;;;;;;25.90;99.90;;;;;;12368855;28;19930;-87
2023/08/19 09:22:17;;;;;;;;;;;26.00;99.90;;;;;;12347015;28;20016;-87
2023/08/19 09:28:19;;;;;;;;;;;26.20;99.90;;;;;;12351734;28;19933;-86
2023/08/19 09:34:21;;;;;;;;;;;26.40;99.90;;;;;;12362805;28;19937;-86
2023/08/19 09:40:23;;;;;;;;;;;26.50;99.90;;;;;;12359416;28;19972;-83
2023/08/19 09:46:34;;;;;;;;;;;26.40;99.90;;;;;;12365164;28;20025;-87
2023/08/19 09:52:37;;;;;;;;;;;26.40;99.90;;;;;;12356542;28;19969;-87
2023/08/19 09:58:38;;;;;;;;;;;26.50;99.90;;;;;;12345493;28;20016;-82
2023/08/19 10:04:40;;;;;;;;;;;26.80;99.90;;;;;;12347936;28;19930;-85
2023/08/19 10:10:43;;;;;;;;;;;27.40;99.90;;;;;;12343501;28;19934;-83
2023/08/19 10:16:48;;;;;;;;;;;27.80;99.90;;;;;;12378859;28;19983;-87
2023/08/19 10:22:52;;;;;;;;;;;27.60;99.90;;;;;;12363539;28;19926;-85
2023/08/19 10:29:04;;;;;;;;;;;27.80;99.90;;;;;;12357125;28;19933;-86
2023/08/19 10:35:09;;;;;;;;;;;28.00;99.90;;;;;;12363944;28;19926;-84
2023/08/19 10:41:22;;;;;;;;;;;28.40;99.90;;;;;;12340311;28;19937;-83
2023/08/19 10:47:23;;;;;;;;;;;28.30;99.90;;;;;;12371618;28;19925;-84
2023/08/19 10:53:25;;;;;;;;;;;27.90;99.90;;;;;;12377741;28;19933;-82
2023/08/19 10:59:27;;;;;;;;;;;27.50;99.90;;;;;;12355765;28;20464;-85
2023/08/19 11:05:29;;;;;;;;;;;27.20;99.90;;;;;;12334719;28;20026;-86
2023/08/19 11:11:31;;;;;;;;;;;27.00;99.90;;;;;;12373156;28;19929;-86
2023/08/19 11:17:33;;;;;;;;;;;26.80;99.90;;;;;;12342533;28;19969;-86
2023/08/19 11:23:35;;;;;;;;;;;26.70;99.90;;;;;;12363494;28;19926;-85
2023/08/19 11:29:40;;;;;;;;;;;26.60;99.90;;;;;;12353250;28;19945;-87
2023/08/19 11:35:43;;;;;;;;;;;26.50;99.90;;;;;;12347754;28;19930;-87
2023/08/19 11:41:47;;;;;;;;;;;26.40;99.90;;;;;;12342525;28;19927;-85
2023/08/19 11:47:49;;;;;;;;;;;26.30;99.90;;;;;;12346736;28;20119;-87
2023/08/19 11:53:52;;;;;;;;;;;26.30;99.90;;;;;;12370568;28;19980;-87
2023/08/19 11:59:54;;;;;;;;;;;26.20;99.90;;;;;;12369796;28;20415;-87
2023/08/19 12:05:56;;;;;;;;;;;26.20;99.90;;;;;;12346700;28;19965;-87
2023/08/19 12:12:06;;;;;;;;;;;26.10;99.90;;;;;;12394580;28;19972;-85
2023/08/19 12:18:15;;;;;;;;;;;26.10;99.90;;;;;;12388649;28;19961;-85
2023/08/19 12:24:17;;;;;;;;;;;26.00;99.90;;;;;;12412523;28;19922;-86
2023/08/19 12:30:18;;;;;;;;;;;26.00;99.90;;;;;;12367911;28;19941;-85
2023/08/19 12:36:20;;;;;;;;;;;26.10;99.90;;;;;;12370439;28;20063;-85
2023/08/19 12:42:22;;;;;;;;;;;26.00;99.90;;;;;;12329420;28;19958;-87
2023/08/19 12:48:35;;;;;;;;;;;26.00;99.90;;;;;;12368757;28;20390;-87
2023/08/19 12:54:37;;;;;;;;;;;26.10;99.90;;;;;;12361482;28;20398;-87
2023/08/19 13:00:39;;;;;;;;;;;26.10;99.90;;;;;;12330401;28;19994;-84
2023/08/19 13:06:46;;;;;;;;;;;26.30;99.90;;;;;;12338693;28;19933;-87
2023/08/19 13:12:51;;;;;;;;;;;26.40;99.90;;;;;;12349836;28;19930;-87
2023/08/19 13:18:54;;;;;;;;;;;26.50;99.90;;;;;;12355361;28;19981;-87
2023/08/19 13:24:56;;;;;;;;;;;26.60;99.90;;;;;;12346876;28;19937;-85
2023/08/19 13:30:58;;;;;;;;;;;26.70;99.90;;;;;;12349466;28;19926;-87
2023/08/19 13:37:00;;;;;;;;;;;26.90;99.90;;;;;;12353418;28;19934;-87
2023/08/19 13:43:03;;;;;;;;;;;27.10;99.90;;;;;;12374469;28;19980;-83
2023/08/19 13:49:04;;;;;;;;;;;27.20;99.90;;;;;;12381799;28;19932;-87
2023/08/19 13:55:07;;;;;;;;;;;27.50;99.90;;;;;;12365701;28;19925;-87
2023/08/19 14:01:10;;;;;;;;;;;27.90;99.90;;;;;;12363987;28;20012;-84
2023/08/19 14:07:12;;;;;;;;;;;28.50;99.90;;;;;;12361249;28;19933;-83
2023/08/19 14:13:14;;;;;;;;;;;29.00;99.90;;;;;;12352048;28;20021;-88
2023/08/19 14:19:16;;;;;;;;;;;29.20;99.90;;;;;;12361419;28;19926;-86
2023/08/19 14:25:18;;;;;;;;;;;28.80;99.90;;;;;;12352675;28;20016;-86
2023/08/19 14:31:19;;;;;;;;;;;28.50;99.90;;;;;;12352954;28;20537;-84
2023/08/19 14:37:21;;;;;;;;;;;28.30;99.90;;;;;;12346313;28;19937;-86
2023/08/19 14:43:23;;;;;;;;;;;28.10;99.90;;;;;;12342676;28;19926;-85
2023/08/19 14:49:25;;;;;;;;;;;27.90;99.90;;;;;;12352658;28;19962;-86
2023/08/19 14:55:27;;;;;;;;;;;27.70;99.90;;;;;;12353676;28;19926;-82
2023/08/19 15:01:29;;;;;;;;;;;27.50;99.90;;;;;;12366801;28;19973;-83
2023/08/19 15:07:30;;;;;;;;;;;27.20;99.90;;;;;;12347316;28;19983;-84
2023/08/19 15:13:33;;;;;;;;;;;26.90;99.90;;;;;;12342298;28;19930;-85
2023/08/19 15:19:34;;;;;;;;;;;26.70;99.90;;;;;;12371109;28;20072;-87
2023/08/19 15:25:36;;;;;;;;;;;26.40;99.90;;;;;;12351929;28;20349;-86
2023/08/19 15:31:38;;;;;;;;;;;26.20;99.90;;;;;;12366558;28;20020;-84
2023/08/19 15:37:40;;;;;;;;;;;26.00;99.90;;;;;;12368716;28;20065;-85
2023/08/19 15:43:41;;;;;;;;;;;25.80;99.90;;;;;;12363910;28;19961;-86
2023/08/19 15:49:43;;;;;;;;;;;25.70;99.90;;;;;;12359009;28;19989;-85
2023/08/19 15:55:45;;;;;;;;;;;25.50;99.90;;;;;;12369523;28;20434;-87
2023/08/19 16:01:46;;;;;;;;;;;25.40;99.90;;;;;;12363160;28;19976;-87
2023/08/19 16:07:48;;;;;;;;;;;25.30;99.90;;;;;;12361148;28;19949;-86
2023/08/19 16:13:50;;;;;;;;;;;25.20;99.90;;;;;;12343693;28;19973;-84
2023/08/19 16:19:52;;;;;;;;;;;25.10;99.90;;;;;;12337901;28;20471;-87
2023/08/19 16:25:54;;;;;;;;;;;25.00;99.90;;;;;;12326230;28;19968;-86
2023/08/19 16:31:55;;;;;;;;;;;25.00;99.90;;;;;;12375517;28;19926;-86
2023/08/19 16:37:57;;;;;;;;;;;24.80;99.90;;;;;;12340914;28;20149;-88
2023/08/19 16:43:59;;;;;;;;;;;24.80;99.90;;;;;;12349289;28;19991;-87
2023/08/19 16:50:01;;;;;;;;;;;24.70;99.90;;;;;;12350873;28;20022;-87
2023/08/19 16:56:04;;;;;;;;;;;24.70;99.90;;;;;;12343304;28;19930;-87
2023/08/19 17:02:06;;;;;;;;;;;24.70;99.90;;;;;;12334760;28;19926;-87
2023/08/19 17:08:07;;;;;;;;;;;24.60;99.90;;;;;;12355501;28;19930;-87
2023/08/19 17:14:09;;;;;;;;;;;24.60;99.90;;;;;;12347687;28;20205;-86
2023/08/19 17:20:11;;;;;;;;;;;24.50;99.90;;;;;;12368484;28;20354;-87
2023/08/19 17:26:13;;;;;;;;;;;24.30;99.90;;;;;;12354058;28;20398;-87
2023/08/19 17:32:15;;;;;;;;;;;24.20;99.90;;;;;;12389386;28;19926;-88
2023/08/19 17:38:17;;;;;;;;;;;24.30;99.90;;;;;;12363274;28;19926;-87
2023/08/19 17:44:19;;;;;;;;;;;24.30;99.90;;;;;;12351834;28;19925;-88
2023/08/19 17:50:21;;;;;;;;;;;24.40;99.90;;;;;;12365324;28;19933;-87
2023/08/19 17:56:23;;;;;;;;;;;24.30;99.90;;;;;;12361943;28;19925;-88
2023/08/19 18:02:25;;;;;;;;;;;24.30;99.90;;;;;;12350866;28;19973;-87
2023/08/19 18:08:27;;;;;;;;;;;24.30;99.90;;;;;;12362440;28;19930;-88
2023/08/19 18:14:28;;;;;;;;;;;24.20;99.90;;;;;;12381862;28;19954;-86
2023/08/19 18:20:30;;;;;;;;;;;24.20;99.90;;;;;;12366061;28;19930;-87
2023/08/19 18:26:32;;;;;;;;;;;24.20;99.90;;;;;;12364797;28;19981;-87
2023/08/19 18:32:33;;;;;;;;;;;24.10;99.90;;;;;;12353421;28;19926;-87
2023/08/19 18:38:35;;;;;;;;;;;24.10;99.90;;;;;;12372517;28;20016;-85
2023/08/19 18:44:37;;;;;;;;;;;23.90;99.90;;;;;;12351496;28;19933;-85
2023/08/19 18:50:39;;;;;;;;;;;23.80;99.90;;;;;;12366023;28;19925;-85
2023/08/19 18:56:41;;;;;;;;;;;23.80;99.90;;;;;;12339079;28;19930;-85
2023/08/19 19:02:43;;;;;;;;;;;23.70;99.90;;;;;;12342830;28;19988;-86
2023/08/19 19:08:45;;;;;;;;;;;23.60;99.90;;;;;;12353873;28;19930;-86
2023/08/19 19:14:47;;;;;;;;;;;23.60;99.90;;;;;;12349941;28;20413;-85
2023/08/19 19:20:48;;;;;;;;;;;23.50;99.90;;;;;;12368807;28;19961;-85
2023/08/19 19:26:50;;;;;;;;;;;23.40;99.90;;;;;;12350192;28;19937;-86
2023/08/19 19:32:52;;;;;;;;;;;23.40;99.90;;;;;;12365763;28;19926;-85
2023/08/19 19:38:54;;;;;;;;;;;23.40;99.90;;;;;;12354647;28;20318;-85
2023/08/19 19:44:56;;;;;;;;;;;23.30;99.90;;;;;;12364122;28;20378;-87
2023/08/19 19:50:58;;;;;;;;;;;23.20;99.90;;;;;;12352671;28;19930;-87
2023/08/19 19:57:02;;;;;;;;;;;23.20;99.90;;;;;;12343624;28;22726;-88
2023/08/19 20:03:03;;;;;;;;;;;23.10;99.90;;;;;;12350298;28;19956;-87
2023/08/19 20:09:06;;;;;;;;;;;23.00;99.90;;;;;;12408729;28;19965;-88
2023/08/19 20:15:08;;;;;;;;;;;22.90;99.90;;;;;;12413770;28;19929;-87
2023/08/19 20:21:10;;;;;;;;;;;22.90;99.90;;;;;;12425085;28;19930;-88
2023/08/19 20:27:12;;;;;;;;;;;22.90;99.90;;;;;;12344460;28;19968;-88
2023/08/19 20:33:14;;;;;;;;;;;22.80;99.90;;;;;;12344395;28;19930;-87
2023/08/19 20:39:15;;;;;;;;;;;22.80;99.90;;;;;;12354619;28;19926;-88
2023/08/19 20:45:17;;;;;;;;;;;22.80;99.90;;;;;;12354429;28;20032;-86
2023/08/19 20:51:19;;;;;;;;;;;22.70;99.90;;;;;;12347746;28;19981;-85
2023/08/19 20:57:21;;;;;;;;;;;22.80;99.90;;;;;;12363351;28;19941;-86
2023/08/19 21:03:22;;;;;;;;;;;22.60;99.90;;;;;;12359700;28;20036;-86
2023/08/19 21:09:24;;;;;;;;;;;22.60;99.90;;;;;;12376347;28;19926;-86
2023/08/19 21:15:26;;;;;;;;;;;22.60;99.90;;;;;;12354399;28;19932;-86
2023/08/19 21:21:28;;;;;;;;;;;22.70;99.90;;;;;;12382571;28;20429;-86
2023/08/19 21:27:30;;;;;;;;;;;22.70;99.90;;;;;;12300749;28;19954;-86
2023/08/19 21:33:32;;;;;;;;;;;22.60;99.90;;;;;;12296025;28;19935;-86
2023/08/19 21:39:33;;;;;;;;;;;22.60;99.90;;;;;;12270092;28;19998;-85
2023/08/19 21:45:35;;;;;;;;;;;22.50;99.90;;;;;;12298936;28;19923;-85
2023/08/19 21:51:37;;;;;;;;;;;22.50;99.90;;;;;;12353800;28;19978;-85
2023/08/19 21:57:39;;;;;;;;;;;22.40;99.90;;;;;;12318447;28;19934;-85
2023/08/19 22:03:40;;;;;;;;;;;22.30;99.90;;;;;;12294179;28;20383;-85
2023/08/19 22:09:42;;;;;;;;;;;22.20;99.90;;;;;;12309647;28;20007;-84
2023/08/19 22:15:44;;;;;;;;;;;22.30;99.90;;;;;;12262839;28;19981;-85
2023/08/19 22:21:45;;;;;;;;;;;22.30;99.90;;;;;;12278729;28;19926;-83
2023/08/19 22:27:47;;;;;;;;;;;22.30;99.90;;;;;;12344853;28;20413;-85
2023/08/19 22:33:49;;;;;;;;;;;22.20;99.90;;;;;;12364211;28;20047;-85
2023/08/19 22:39:51;;;;;;;;;;;22.10;99.90;;;;;;12355782;28;22190;-85
2023/08/19 22:45:53;;;;;;;;;;;22.00;99.90;;;;;;12359195;28;19933;-85
2023/08/19 22:52:01;;;;;;;;;;;22.00;99.90;;;;;;12355618;28;19979;-84
2023/08/19 22:58:02;;;;;;;;;;;22.10;99.90;;;;;;12349869;28;19930;-85
2023/08/19 23:04:07;;;;;;;;;;;21.90;99.90;;;;;;12345300;28;19933;-85
2023/08/19 23:10:09;;;;;;;;;;;21.90;99.90;;;;;;12365738;28;19995;-84
2023/08/19 23:16:11;;;;;;;;;;;21.80;99.90;;;;;;12354308;28;20081;-84
2023/08/19 23:22:12;;;;;;;;;;;21.60;99.90;;;;;;12362038;28;20425;-84
2023/08/19 23:28:14;;;;;;;;;;;21.60;99.90;;;;;;12349624;28;20029;-84
2023/08/19 23:34:16;;;;;;;;;;;21.50;99.90;;;;;;12355534;28;20020;-84
2023/08/19 23:40:18;;;;;;;;;;;21.50;99.90;;;;;;12342494;28;19976;-84
2023/08/19 23:46:20;;;;;;;;;;;21.50;99.90;;;;;;12343673;28;19933;-84
2023/08/19 23:52:24;;;;;;;;;;;21.50;99.90;;;;;;12353051;28;20421;-84
2023/08/19 23:58:25;;;;;;;;;;;21.40;99.90;;;;;;12347894;28;19965;-84
